sensor_id;sensor_type;location;lat;lon;timestamp;temperature;humidity
22469;DHT22;11401;50.792;4.352;2024-01-30T00:02:02;15.40;59.20
22469;DHT22;11401;50.792;4.352;2024-01-30T00:04:29;15.50;59.30
22469;DHT22;11401;50.792;4.352;2024-01-30T00:06:56;15.50;59.10
22469;DHT22;11401;50.792;4.352;2024-01-30T00:09:23;15.50;59.10
22469;DHT22;11401;50.792;4.352;2024-01-30T00:11:51;15.60;59.20
22469;DHT22;11401;50.792;4.352;2024-01-30T00:14:18;15.60;58.90
22469;DHT22;11401;50.792;4.352;2024-01-30T00:16:45;15.60;58.70
22469;DHT22;11401;50.792;4.352;2024-01-30T00:19:12;15.70;58.80
22469;DHT22;11401;50.792;4.352;2024-01-30T00:21:40;15.60;58.80
22469;DHT22;11401;50.792;4.352;2024-01-30T00:24:07;15.70;58.90
22469;DHT22;11401;50.792;4.352;2024-01-30T00:26:34;15.80;58.70
22469;DHT22;11401;50.792;4.352;2024-01-30T00:29:01;15.80;58.50
22469;DHT22;11401;50.792;4.352;2024-01-30T00:31:28;15.80;58.60
22469;DHT22;11401;50.792;4.352;2024-01-30T00:33:56;15.80;58.60
22469;DHT22;11401;50.792;4.352;2024-01-30T00:36:23;15.80;58.70
22469;DHT22;11401;50.792;4.352;2024-01-30T00:38:50;15.80;58.50
22469;DHT22;11401;50.792;4.352;2024-01-30T00:41:18;15.90;58.80
22469;DHT22;11401;50.792;4.352;2024-01-30T00:43:46;15.90;58.40
22469;DHT22;11401;50.792;4.352;2024-01-30T00:46:13;15.80;58.50
22469;DHT22;11401;50.792;4.352;2024-01-30T00:48:40;15.90;58.60
22469;DHT22;11401;50.792;4.352;2024-01-30T00:51:07;15.90;58.50
22469;DHT22;11401;50.792;4.352;2024-01-30T00:53:34;15.90;58.90
22469;DHT22;11401;50.792;4.352;2024-01-30T00:56:02;15.90;58.50
22469;DHT22;11401;50.792;4.352;2024-01-30T00:58:29;15.90;58.60
22469;DHT22;11401;50.792;4.352;2024-01-30T01:00:56;16.00;58.60
22469;DHT22;11401;50.792;4.352;2024-01-30T01:03:23;15.90;58.30
22469;DHT22;11401;50.792;4.352;2024-01-30T01:05:50;15.90;58.50
22469;DHT22;11401;50.792;4.352;2024-01-30T01:08:18;15.90;58.50
22469;DHT22;11401;50.792;4.352;2024-01-30T01:10:47;15.90;58.60
22469;DHT22;11401;50.792;4.352;2024-01-30T01:13:14;16.00;58.60
22469;DHT22;11401;50.792;4.352;2024-01-30T01:15:43;16.00;58.50
22469;DHT22;11401;50.792;4.352;2024-01-30T01:18:11;16.00;58.50
22469;DHT22;11401;50.792;4.352;2024-01-30T01:20:38;16.00;58.40
22469;DHT22;11401;50.792;4.352;2024-01-30T01:23:05;15.90;58.60
22469;DHT22;11401;50.792;4.352;2024-01-30T01:25:32;15.90;58.80
22469;DHT22;11401;50.792;4.352;2024-01-30T01:27:59;16.00;58.90
22469;DHT22;11401;50.792;4.352;2024-01-30T01:30:28;16.00;58.80
22469;DHT22;11401;50.792;4.352;2024-01-30T01:32:56;16.00;58.80
22469;DHT22;11401;50.792;4.352;2024-01-30T01:35:25;16.00;58.80
22469;DHT22;11401;50.792;4.352;2024-01-30T01:37:53;16.00;58.70
22469;DHT22;11401;50.792;4.352;2024-01-30T01:40:23;16.00;58.70
22469;DHT22;11401;50.792;4.352;2024-01-30T01:42:52;16.00;58.90
22469;DHT22;11401;50.792;4.352;2024-01-30T01:45:19;16.10;58.80
22469;DHT22;11401;50.792;4.352;2024-01-30T01:47:55;16.10;58.70
22469;DHT22;11401;50.792;4.352;2024-01-30T01:50:24;16.10;58.80
22469;DHT22;11401;50.792;4.352;2024-01-30T01:52:52;16.10;58.80
22469;DHT22;11401;50.792;4.352;2024-01-30T01:55:21;16.00;58.80
22469;DHT22;11401;50.792;4.352;2024-01-30T01:57:49;16.00;58.90
22469;DHT22;11401;50.792;4.352;2024-01-30T02:00:17;16.00;58.90
22469;DHT22;11401;50.792;4.352;2024-01-30T02:02:46;16.00;59.00
22469;DHT22;11401;50.792;4.352;2024-01-30T02:05:15;16.00;58.90
22469;DHT22;11401;50.792;4.352;2024-01-30T02:07:44;16.00;59.00
22469;DHT22;11401;50.792;4.352;2024-01-30T02:10:11;16.00;58.90
22469;DHT22;11401;50.792;4.352;2024-01-30T02:12:39;16.10;58.90
22469;DHT22;11401;50.792;4.352;2024-01-30T02:15:06;16.10;59.00
22469;DHT22;11401;50.792;4.352;2024-01-30T02:17:35;16.10;59.10
22469;DHT22;11401;50.792;4.352;2024-01-30T02:20:02;16.10;58.90
22469;DHT22;11401;50.792;4.352;2024-01-30T02:22:32;16.10;58.90
22469;DHT22;11401;50.792;4.352;2024-01-30T02:25:00;16.10;59.10
22469;DHT22;11401;50.792;4.352;2024-01-30T02:27:28;16.00;59.20
22469;DHT22;11401;50.792;4.352;2024-01-30T02:29:55;16.00;59.30
22469;DHT22;11401;50.792;4.352;2024-01-30T02:32:22;16.00;59.30
22469;DHT22;11401;50.792;4.352;2024-01-30T02:34:49;16.20;59.10
22469;DHT22;11401;50.792;4.352;2024-01-30T02:37:17;16.10;58.80
22469;DHT22;11401;50.792;4.352;2024-01-30T02:39:45;16.20;58.90
22469;DHT22;11401;50.792;4.352;2024-01-30T02:42:12;16.20;58.80
22469;DHT22;11401;50.792;4.352;2024-01-30T02:44:39;16.20;58.80
22469;DHT22;11401;50.792;4.352;2024-01-30T02:47:06;16.10;58.80
22469;DHT22;11401;50.792;4.352;2024-01-30T02:49:33;16.20;58.80
22469;DHT22;11401;50.792;4.352;2024-01-30T02:52:00;16.20;58.70
22469;DHT22;11401;50.792;4.352;2024-01-30T02:54:27;16.10;58.90
22469;DHT22;11401;50.792;4.352;2024-01-30T02:56:54;16.10;59.00
22469;DHT22;11401;50.792;4.352;2024-01-30T02:59:21;16.10;58.90
22469;DHT22;11401;50.792;4.352;2024-01-30T03:01:48;16.10;59.10
22469;DHT22;11401;50.792;4.352;2024-01-30T03:04:16;16.20;58.90
22469;DHT22;11401;50.792;4.352;2024-01-30T03:06:46;16.20;59.00
22469;DHT22;11401;50.792;4.352;2024-01-30T03:09:19;16.30;58.70
22469;DHT22;11401;50.792;4.352;2024-01-30T03:11:46;16.30;59.00
22469;DHT22;11401;50.792;4.352;2024-01-30T03:14:13;16.20;58.60
22469;DHT22;11401;50.792;4.352;2024-01-30T03:16:40;16.30;58.90
22469;DHT22;11401;50.792;4.352;2024-01-30T03:19:08;16.30;58.70
22469;DHT22;11401;50.792;4.352;2024-01-30T03:21:36;16.30;58.90
22469;DHT22;11401;50.792;4.352;2024-01-30T03:24:04;16.20;58.70
22469;DHT22;11401;50.792;4.352;2024-01-30T03:26:31;16.30;58.90
22469;DHT22;11401;50.792;4.352;2024-01-30T03:28:58;16.30;58.50
22469;DHT22;11401;50.792;4.352;2024-01-30T03:31:25;16.30;58.80
22469;DHT22;11401;50.792;4.352;2024-01-30T03:33:52;16.20;58.70
22469;DHT22;11401;50.792;4.352;2024-01-30T03:36:20;16.10;58.90
22469;DHT22;11401;50.792;4.352;2024-01-30T03:38:47;16.20;58.90
22469;DHT22;11401;50.792;4.352;2024-01-30T03:41:17;16.30;58.80
22469;DHT22;11401;50.792;4.352;2024-01-30T03:43:44;16.20;58.70
22469;DHT22;11401;50.792;4.352;2024-01-30T03:46:14;16.20;59.00
22469;DHT22;11401;50.792;4.352;2024-01-30T03:48:41;16.10;58.90
22469;DHT22;11401;50.792;4.352;2024-01-30T03:51:09;16.10;59.00
22469;DHT22;11401;50.792;4.352;2024-01-30T03:53:42;16.20;58.90
22469;DHT22;11401;50.792;4.352;2024-01-30T03:56:09;16.20;58.80
22469;DHT22;11401;50.792;4.352;2024-01-30T03:58:36;16.10;58.90
22469;DHT22;11401;50.792;4.352;2024-01-30T04:01:03;16.20;59.00
22469;DHT22;11401;50.792;4.352;2024-01-30T04:03:31;16.20;58.90
22469;DHT22;11401;50.792;4.352;2024-01-30T04:05:58;16.30;58.80
22469;DHT22;11401;50.792;4.352;2024-01-30T04:08:25;16.30;58.60
22469;DHT22;11401;50.792;4.352;2024-01-30T04:10:52;16.30;58.60
22469;DHT22;11401;50.792;4.352;2024-01-30T04:13:19;16.20;58.80
22469;DHT22;11401;50.792;4.352;2024-01-30T04:15:47;16.10;58.90
22469;DHT22;11401;50.792;4.352;2024-01-30T04:18:14;16.20;59.00
22469;DHT22;11401;50.792;4.352;2024-01-30T04:20:41;16.20;59.80
22469;DHT22;11401;50.792;4.352;2024-01-30T04:23:08;16.20;59.00
22469;DHT22;11401;50.792;4.352;2024-01-30T04:25:36;16.20;58.80
22469;DHT22;11401;50.792;4.352;2024-01-30T04:28:03;16.10;58.90
22469;DHT22;11401;50.792;4.352;2024-01-30T04:30:31;16.10;59.10
22469;DHT22;11401;50.792;4.352;2024-01-30T04:32:58;16.10;59.30
22469;DHT22;11401;50.792;4.352;2024-01-30T04:35:25;16.00;59.20
22469;DHT22;11401;50.792;4.352;2024-01-30T04:37:52;16.00;59.20
22469;DHT22;11401;50.792;4.352;2024-01-30T04:40:21;16.00;59.30
22469;DHT22;11401;50.792;4.352;2024-01-30T04:42:48;16.00;59.50
22469;DHT22;11401;50.792;4.352;2024-01-30T04:45:15;16.00;59.50
22469;DHT22;11401;50.792;4.352;2024-01-30T04:47:42;16.00;59.30
22469;DHT22;11401;50.792;4.352;2024-01-30T04:50:09;16.00;59.40
22469;DHT22;11401;50.792;4.352;2024-01-30T04:52:37;16.00;59.40
22469;DHT22;11401;50.792;4.352;2024-01-30T04:55:04;16.00;59.40
22469;DHT22;11401;50.792;4.352;2024-01-30T04:57:31;15.90;59.50
22469;DHT22;11401;50.792;4.352;2024-01-30T05:00:00;16.00;59.50
22469;DHT22;11401;50.792;4.352;2024-01-30T05:02:27;16.00;59.30
22469;DHT22;11401;50.792;4.352;2024-01-30T05:04:54;16.00;59.30
22469;DHT22;11401;50.792;4.352;2024-01-30T05:07:22;16.00;59.50
22469;DHT22;11401;50.792;4.352;2024-01-30T05:09:49;16.00;59.30
22469;DHT22;11401;50.792;4.352;2024-01-30T05:12:16;16.00;59.60
22469;DHT22;11401;50.792;4.352;2024-01-30T05:14:44;16.10;59.50
22469;DHT22;11401;50.792;4.352;2024-01-30T05:17:11;16.00;59.30
22469;DHT22;11401;50.792;4.352;2024-01-30T05:19:39;16.00;59.40
22469;DHT22;11401;50.792;4.352;2024-01-30T05:22:06;16.00;59.50
22469;DHT22;11401;50.792;4.352;2024-01-30T05:24:34;16.00;59.70
22469;DHT22;11401;50.792;4.352;2024-01-30T05:27:01;16.00;59.60
22469;DHT22;11401;50.792;4.352;2024-01-30T05:29:28;16.10;59.60
22469;DHT22;11401;50.792;4.352;2024-01-30T05:31:55;16.10;59.30
22469;DHT22;11401;50.792;4.352;2024-01-30T05:34:22;16.10;59.40
22469;DHT22;11401;50.792;4.352;2024-01-30T05:36:49;16.10;59.20
22469;DHT22;11401;50.792;4.352;2024-01-30T05:39:16;16.00;59.30
22469;DHT22;11401;50.792;4.352;2024-01-30T05:41:43;16.00;59.40
22469;DHT22;11401;50.792;4.352;2024-01-30T05:44:10;16.10;59.30
22469;DHT22;11401;50.792;4.352;2024-01-30T05:46:37;16.00;59.40
22469;DHT22;11401;50.792;4.352;2024-01-30T05:49:04;16.00;59.50
22469;DHT22;11401;50.792;4.352;2024-01-30T05:51:31;16.00;59.30
22469;DHT22;11401;50.792;4.352;2024-01-30T05:53:59;16.00;59.30
22469;DHT22;11401;50.792;4.352;2024-01-30T05:56:26;16.10;59.40
22469;DHT22;11401;50.792;4.352;2024-01-30T05:58:53;16.10;59.20
22469;DHT22;11401;50.792;4.352;2024-01-30T06:01:20;16.00;59.20
22469;DHT22;11401;50.792;4.352;2024-01-30T06:03:48;16.10;59.30
22469;DHT22;11401;50.792;4.352;2024-01-30T06:06:15;16.00;59.30
22469;DHT22;11401;50.792;4.352;2024-01-30T06:08:42;16.20;59.40
22469;DHT22;11401;50.792;4.352;2024-01-30T06:11:11;16.20;59.00
22469;DHT22;11401;50.792;4.352;2024-01-30T06:13:39;16.30;58.80
22469;DHT22;11401;50.792;4.352;2024-01-30T06:16:09;16.40;58.80
22469;DHT22;11401;50.792;4.352;2024-01-30T06:18:37;16.40;58.50
22469;DHT22;11401;50.792;4.352;2024-01-30T06:21:05;16.30;58.60
22469;DHT22;11401;50.792;4.352;2024-01-30T06:23:34;16.20;58.50
22469;DHT22;11401;50.792;4.352;2024-01-30T06:26:01;16.10;59.00
22469;DHT22;11401;50.792;4.352;2024-01-30T06:28:28;16.10;59.50
22469;DHT22;11401;50.792;4.352;2024-01-30T06:30:55;16.20;59.50
22469;DHT22;11401;50.792;4.352;2024-01-30T06:33:22;16.40;59.00
22469;DHT22;11401;50.792;4.352;2024-01-30T06:35:50;16.40;58.50
22469;DHT22;11401;50.792;4.352;2024-01-30T06:38:18;16.30;58.70
22469;DHT22;11401;50.792;4.352;2024-01-30T06:40:45;16.20;59.10
22469;DHT22;11401;50.792;4.352;2024-01-30T06:43:13;16.10;59.10
22469;DHT22;11401;50.792;4.352;2024-01-30T06:45:40;16.00;59.30
22469;DHT22;11401;50.792;4.352;2024-01-30T06:48:09;16.00;59.80
22469;DHT22;11401;50.792;4.352;2024-01-30T06:50:36;16.00;59.60
22469;DHT22;11401;50.792;4.352;2024-01-30T06:53:03;16.20;60.00
22469;DHT22;11401;50.792;4.352;2024-01-30T06:55:30;16.20;59.00
22469;DHT22;11401;50.792;4.352;2024-01-30T06:57:57;16.10;59.20
22469;DHT22;11401;50.792;4.352;2024-01-30T07:00:25;16.00;59.40
22469;DHT22;11401;50.792;4.352;2024-01-30T07:02:53;15.90;59.60
22469;DHT22;11401;50.792;4.352;2024-01-30T07:05:20;15.90;59.80
22469;DHT22;11401;50.792;4.352;2024-01-30T07:07:49;15.90;59.90
22469;DHT22;11401;50.792;4.352;2024-01-30T07:10:16;15.80;59.90
22469;DHT22;11401;50.792;4.352;2024-01-30T07:12:43;15.80;60.10
22469;DHT22;11401;50.792;4.352;2024-01-30T07:15:11;15.80;60.20
22469;DHT22;11401;50.792;4.352;2024-01-30T07:17:38;15.80;60.30
22469;DHT22;11401;50.792;4.352;2024-01-30T07:20:06;15.70;60.30
22469;DHT22;11401;50.792;4.352;2024-01-30T07:22:34;15.70;60.50
22469;DHT22;11401;50.792;4.352;2024-01-30T07:25:01;15.70;60.50
22469;DHT22;11401;50.792;4.352;2024-01-30T07:27:28;15.70;60.70
22469;DHT22;11401;50.792;4.352;2024-01-30T07:29:55;15.70;60.70
22469;DHT22;11401;50.792;4.352;2024-01-30T07:32:22;15.80;60.80
22469;DHT22;11401;50.792;4.352;2024-01-30T16:32:59;15.60;55.60
22469;DHT22;11401;50.792;4.352;2024-01-30T16:35:28;15.60;55.90
22469;DHT22;11401;50.792;4.352;2024-01-30T16:38:12;15.60;55.80
22469;DHT22;11401;50.792;4.352;2024-01-30T16:40:41;15.60;55.80
22469;DHT22;11401;50.792;4.352;2024-01-30T16:43:08;15.70;56.40
22469;DHT22;11401;50.792;4.352;2024-01-30T16:45:35;15.60;55.70
22469;DHT22;11401;50.792;4.352;2024-01-30T16:48:03;15.60;55.80
22469;DHT22;11401;50.792;4.352;2024-01-30T16:50:31;15.60;55.60
22469;DHT22;11401;50.792;4.352;2024-01-30T16:52:58;15.60;56.00
22469;DHT22;11401;50.792;4.352;2024-01-30T16:55:25;15.60;56.00
22469;DHT22;11401;50.792;4.352;2024-01-30T16:57:53;15.50;56.00
22469;DHT22;11401;50.792;4.352;2024-01-30T17:00:20;15.60;56.40
22469;DHT22;11401;50.792;4.352;2024-01-30T17:02:47;15.50;57.00
22469;DHT22;11401;50.792;4.352;2024-01-30T17:05:14;15.50;57.10
22469;DHT22;11401;50.792;4.352;2024-01-30T17:07:54;15.50;57.40
22469;DHT22;11401;50.792;4.352;2024-01-30T17:10:21;15.50;57.40
22469;DHT22;11401;50.792;4.352;2024-01-30T17:12:48;15.50;57.50
22469;DHT22;11401;50.792;4.352;2024-01-30T17:15:16;15.40;57.90
22469;DHT22;11401;50.792;4.352;2024-01-30T17:17:43;15.40;57.80
22469;DHT22;11401;50.792;4.352;2024-01-30T17:20:10;15.40;57.80
22469;DHT22;11401;50.792;4.352;2024-01-30T17:22:42;15.30;58.00
22469;DHT22;11401;50.792;4.352;2024-01-30T17:25:12;15.30;57.80
22469;DHT22;11401;50.792;4.352;2024-01-30T17:27:42;15.30;58.10
22469;DHT22;11401;50.792;4.352;2024-01-30T17:30:12;15.30;58.10
22469;DHT22;11401;50.792;4.352;2024-01-30T17:32:41;15.20;58.00
22469;DHT22;11401;50.792;4.352;2024-01-30T17:35:08;15.20;58.40
22469;DHT22;11401;50.792;4.352;2024-01-30T17:37:35;15.20;58.40
22469;DHT22;11401;50.792;4.352;2024-01-30T17:40:06;15.20;58.60
22469;DHT22;11401;50.792;4.352;2024-01-30T17:42:34;15.20;58.50
22469;DHT22;11401;50.792;4.352;2024-01-30T17:45:03;15.20;58.80
22469;DHT22;11401;50.792;4.352;2024-01-30T17:47:30;15.20;59.00
22469;DHT22;11401;50.792;4.352;2024-01-30T17:49:57;15.20;58.90
22469;DHT22;11401;50.792;4.352;2024-01-30T17:52:24;15.10;58.90
22469;DHT22;11401;50.792;4.352;2024-01-30T17:54:52;15.20;59.10
22469;DHT22;11401;50.792;4.352;2024-01-30T17:57:22;15.10;58.80
22469;DHT22;11401;50.792;4.352;2024-01-30T17:59:50;15.10;59.00
22469;DHT22;11401;50.792;4.352;2024-01-30T18:02:17;15.10;59.10
22469;DHT22;11401;50.792;4.352;2024-01-30T18:04:44;15.10;59.40
22469;DHT22;11401;50.792;4.352;2024-01-30T18:07:12;15.00;59.30
22469;DHT22;11401;50.792;4.352;2024-01-30T18:09:40;15.00;59.40
22469;DHT22;11401;50.792;4.352;2024-01-30T18:12:07;15.00;59.50
22469;DHT22;11401;50.792;4.352;2024-01-30T18:14:36;15.00;59.50
22469;DHT22;11401;50.792;4.352;2024-01-30T18:17:03;15.00;59.50
22469;DHT22;11401;50.792;4.352;2024-01-30T18:19:30;15.00;59.50
22469;DHT22;11401;50.792;4.352;2024-01-30T18:21:58;15.00;59.40
22469;DHT22;11401;50.792;4.352;2024-01-30T18:24:26;15.00;59.40
22469;DHT22;11401;50.792;4.352;2024-01-30T18:26:54;15.00;59.40
22469;DHT22;11401;50.792;4.352;2024-01-30T18:29:22;15.00;59.20
22469;DHT22;11401;50.792;4.352;2024-01-30T18:31:50;15.00;59.10
22469;DHT22;11401;50.792;4.352;2024-01-30T18:34:17;15.00;59.10
22469;DHT22;11401;50.792;4.352;2024-01-30T18:36:45;15.10;59.40
22469;DHT22;11401;50.792;4.352;2024-01-30T18:39:12;15.20;59.00
22469;DHT22;11401;50.792;4.352;2024-01-30T18:41:40;15.30;58.90
22469;DHT22;11401;50.792;4.352;2024-01-30T18:44:07;15.30;57.70
22469;DHT22;11401;50.792;4.352;2024-01-30T18:46:35;15.20;57.60
22469;DHT22;11401;50.792;4.352;2024-01-30T18:49:03;15.10;58.90
22469;DHT22;11401;50.792;4.352;2024-01-30T18:51:30;15.00;58.50
22469;DHT22;11401;50.792;4.352;2024-01-30T18:53:57;15.00;58.60
22469;DHT22;11401;50.792;4.352;2024-01-30T18:56:24;15.00;58.40
22469;DHT22;11401;50.792;4.352;2024-01-30T18:58:53;15.00;58.40
22469;DHT22;11401;50.792;4.352;2024-01-30T19:01:21;15.00;58.70
22469;DHT22;11401;50.792;4.352;2024-01-30T19:03:50;14.90;58.70
22469;DHT22;11401;50.792;4.352;2024-01-30T19:06:18;14.90;58.80
22469;DHT22;11401;50.792;4.352;2024-01-30T19:08:45;14.90;58.90
22469;DHT22;11401;50.792;4.352;2024-01-30T19:11:19;14.90;59.10
22469;DHT22;11401;50.792;4.352;2024-01-30T19:13:46;14.90;58.90
22469;DHT22;11401;50.792;4.352;2024-01-30T19:16:14;14.90;59.10
22469;DHT22;11401;50.792;4.352;2024-01-30T19:18:41;14.90;58.90
22469;DHT22;11401;50.792;4.352;2024-01-30T19:21:08;14.90;59.10
22469;DHT22;11401;50.792;4.352;2024-01-30T19:23:36;14.80;59.20
22469;DHT22;11401;50.792;4.352;2024-01-30T19:26:03;14.80;59.30
22469;DHT22;11401;50.792;4.352;2024-01-30T19:28:30;14.80;59.30
22469;DHT22;11401;50.792;4.352;2024-01-30T19:30:57;14.80;59.20
22469;DHT22;11401;50.792;4.352;2024-01-30T19:33:27;14.80;59.40
22469;DHT22;11401;50.792;4.352;2024-01-30T19:35:54;14.80;59.30
22469;DHT22;11401;50.792;4.352;2024-01-30T19:38:21;14.80;59.20
22469;DHT22;11401;50.792;4.352;2024-01-30T19:40:51;14.70;59.20
22469;DHT22;11401;50.792;4.352;2024-01-30T19:43:19;14.70;59.20
22469;DHT22;11401;50.792;4.352;2024-01-30T19:45:47;14.70;59.20
22469;DHT22;11401;50.792;4.352;2024-01-30T19:48:14;14.70;59.30
22469;DHT22;11401;50.792;4.352;2024-01-30T19:50:42;14.70;59.40
22469;DHT22;11401;50.792;4.352;2024-01-30T19:53:09;14.70;59.30
22469;DHT22;11401;50.792;4.352;2024-01-30T19:55:36;14.70;59.30
22469;DHT22;11401;50.792;4.352;2024-01-30T19:58:04;14.60;59.30
22469;DHT22;11401;50.792;4.352;2024-01-30T20:00:31;14.60;59.30
22469;DHT22;11401;50.792;4.352;2024-01-30T20:02:59;14.60;59.30
22469;DHT22;11401;50.792;4.352;2024-01-30T20:05:27;14.60;59.70
22469;DHT22;11401;50.792;4.352;2024-01-30T20:07:54;14.60;59.90
22469;DHT22;11401;50.792;4.352;2024-01-30T20:10:21;14.60;59.90
22469;DHT22;11401;50.792;4.352;2024-01-30T20:12:48;14.60;60.00
22469;DHT22;11401;50.792;4.352;2024-01-30T20:15:18;14.60;60.10
22469;DHT22;11401;50.792;4.352;2024-01-30T20:17:45;14.60;60.10
22469;DHT22;11401;50.792;4.352;2024-01-30T20:20:12;14.50;60.10
22469;DHT22;11401;50.792;4.352;2024-01-30T20:22:44;14.60;60.00
22469;DHT22;11401;50.792;4.352;2024-01-30T20:25:13;14.60;60.10
22469;DHT22;11401;50.792;4.352;2024-01-30T20:27:46;14.60;60.10
22469;DHT22;11401;50.792;4.352;2024-01-30T20:30:13;14.60;60.00
22469;DHT22;11401;50.792;4.352;2024-01-30T20:32:41;14.50;60.00
22469;DHT22;11401;50.792;4.352;2024-01-30T20:35:09;14.50;60.00
22469;DHT22;11401;50.792;4.352;2024-01-30T20:37:39;14.50;60.00
22469;DHT22;11401;50.792;4.352;2024-01-30T20:40:06;14.50;60.00
22469;DHT22;11401;50.792;4.352;2024-01-30T20:42:34;14.50;60.00
22469;DHT22;11401;50.792;4.352;2024-01-30T20:45:04;14.50;60.10
22469;DHT22;11401;50.792;4.352;2024-01-30T20:47:31;14.50;60.00
22469;DHT22;11401;50.792;4.352;2024-01-30T20:50:00;14.50;60.10
22469;DHT22;11401;50.792;4.352;2024-01-30T20:52:29;14.50;59.50
22469;DHT22;11401;50.792;4.352;2024-01-30T20:54:56;14.40;61.20
22469;DHT22;11401;50.792;4.352;2024-01-30T20:57:23;14.40;60.30
22469;DHT22;11401;50.792;4.352;2024-01-30T20:59:50;14.40;60.30
22469;DHT22;11401;50.792;4.352;2024-01-30T21:02:17;14.50;60.20
22469;DHT22;11401;50.792;4.352;2024-01-30T21:04:44;14.50;60.20
22469;DHT22;11401;50.792;4.352;2024-01-30T21:07:11;14.60;60.00
22469;DHT22;11401;50.792;4.352;2024-01-30T21:09:38;14.60;60.00
22469;DHT22;11401;50.792;4.352;2024-01-30T21:12:06;14.60;59.90
22469;DHT22;11401;50.792;4.352;2024-01-30T21:14:33;14.60;60.00
22469;DHT22;11401;50.792;4.352;2024-01-30T21:17:00;14.60;60.00
22469;DHT22;11401;50.792;4.352;2024-01-30T21:19:27;14.60;59.90
22469;DHT22;11401;50.792;4.352;2024-01-30T21:21:54;14.60;59.80
22469;DHT22;11401;50.792;4.352;2024-01-30T21:24:21;14.60;59.80
22469;DHT22;11401;50.792;4.352;2024-01-30T21:26:48;14.60;59.90
22469;DHT22;11401;50.792;4.352;2024-01-30T21:29:15;14.60;59.90
22469;DHT22;11401;50.792;4.352;2024-01-30T21:31:48;14.60;59.80
22469;DHT22;11401;50.792;4.352;2024-01-30T21:34:17;14.60;59.70
22469;DHT22;11401;50.792;4.352;2024-01-30T21:36:44;14.60;59.80
22469;DHT22;11401;50.792;4.352;2024-01-30T21:39:11;14.70;60.00
22469;DHT22;11401;50.792;4.352;2024-01-30T21:41:38;14.70;59.60
22469;DHT22;11401;50.792;4.352;2024-01-30T21:44:05;14.70;59.80
22469;DHT22;11401;50.792;4.352;2024-01-30T21:46:32;14.70;59.80
22469;DHT22;11401;50.792;4.352;2024-01-30T21:49:00;14.70;59.40
22469;DHT22;11401;50.792;4.352;2024-01-30T21:51:27;14.70;59.80
22469;DHT22;11401;50.792;4.352;2024-01-30T21:53:54;14.60;59.80
22469;DHT22;11401;50.792;4.352;2024-01-30T21:56:22;14.70;59.70
22469;DHT22;11401;50.792;4.352;2024-01-30T21:58:49;14.70;59.80
22469;DHT22;11401;50.792;4.352;2024-01-30T22:01:20;14.70;59.80
22469;DHT22;11401;50.792;4.352;2024-01-30T22:03:47;14.60;59.80
22469;DHT22;11401;50.792;4.352;2024-01-30T22:06:16;14.60;60.00
22469;DHT22;11401;50.792;4.352;2024-01-30T22:08:46;14.60;60.00
22469;DHT22;11401;50.792;4.352;2024-01-30T22:11:13;14.60;60.30
22469;DHT22;11401;50.792;4.352;2024-01-30T22:13:41;14.50;60.50
22469;DHT22;11401;50.792;4.352;2024-01-30T22:16:08;14.50;60.60
22469;DHT22;11401;50.792;4.352;2024-01-30T22:18:35;14.50;60.60
22469;DHT22;11401;50.792;4.352;2024-01-30T22:21:02;14.50;60.70
22469;DHT22;11401;50.792;4.352;2024-01-30T22:23:34;14.50;60.80
22469;DHT22;11401;50.792;4.352;2024-01-30T22:26:01;14.50;61.10
22469;DHT22;11401;50.792;4.352;2024-01-30T22:28:29;14.60;61.40
22469;DHT22;11401;50.792;4.352;2024-01-30T22:30:56;14.60;60.80
22469;DHT22;11401;50.792;4.352;2024-01-30T22:33:23;14.50;60.70
22469;DHT22;11401;50.792;4.352;2024-01-30T22:35:52;14.60;60.40
22469;DHT22;11401;50.792;4.352;2024-01-30T22:38:19;14.70;60.40
22469;DHT22;11401;50.792;4.352;2024-01-30T22:40:47;14.60;60.30
22469;DHT22;11401;50.792;4.352;2024-01-30T22:43:14;14.60;60.40
22469;DHT22;11401;50.792;4.352;2024-01-30T22:45:41;14.50;60.50
22469;DHT22;11401;50.792;4.352;2024-01-30T22:48:08;14.50;60.80
22469;DHT22;11401;50.792;4.352;2024-01-30T22:50:35;14.50;60.70
22469;DHT22;11401;50.792;4.352;2024-01-30T22:53:02;14.50;60.60
22469;DHT22;11401;50.792;4.352;2024-01-30T22:55:30;14.50;60.70
22469;DHT22;11401;50.792;4.352;2024-01-30T22:57:57;14.50;60.70
22469;DHT22;11401;50.792;4.352;2024-01-30T23:00:25;14.50;60.60
22469;DHT22;11401;50.792;4.352;2024-01-30T23:02:55;14.50;60.50
22469;DHT22;11401;50.792;4.352;2024-01-30T23:05:23;14.50;60.60
22469;DHT22;11401;50.792;4.352;2024-01-30T23:07:51;14.50;60.70
22469;DHT22;11401;50.792;4.352;2024-01-30T23:10:18;14.50;60.60
22469;DHT22;11401;50.792;4.352;2024-01-30T23:12:46;14.40;60.70
22469;DHT22;11401;50.792;4.352;2024-01-30T23:15:14;14.40;60.90
22469;DHT22;11401;50.792;4.352;2024-01-30T23:17:41;14.40;60.90
22469;DHT22;11401;50.792;4.352;2024-01-30T23:20:09;14.40;60.80
22469;DHT22;11401;50.792;4.352;2024-01-30T23:22:36;14.40;60.90
22469;DHT22;11401;50.792;4.352;2024-01-30T23:25:04;14.40;60.80
22469;DHT22;11401;50.792;4.352;2024-01-30T23:27:31;14.40;60.90
22469;DHT22;11401;50.792;4.352;2024-01-30T23:29:59;14.40;61.60
22469;DHT22;11401;50.792;4.352;2024-01-30T23:32:27;14.40;60.80
22469;DHT22;11401;50.792;4.352;2024-01-30T23:35:05;14.40;61.00
22469;DHT22;11401;50.792;4.352;2024-01-30T23:37:34;14.40;61.10
22469;DHT22;11401;50.792;4.352;2024-01-30T23:40:01;14.40;61.00
22469;DHT22;11401;50.792;4.352;2024-01-30T23:42:29;14.40;60.90
22469;DHT22;11401;50.792;4.352;2024-01-30T23:44:56;14.40;61.00
22469;DHT22;11401;50.792;4.352;2024-01-30T23:47:25;14.40;60.90
22469;DHT22;11401;50.792;4.352;2024-01-30T23:49:52;14.40;61.10
22469;DHT22;11401;50.792;4.352;2024-01-30T23:52:19;14.30;61.10
22469;DHT22;11401;50.792;4.352;2024-01-30T23:54:48;14.40;61.10
22469;DHT22;11401;50.792;4.352;2024-01-30T23:57:15;14.30;61.10
22469;DHT22;11401;50.792;4.352;2024-01-30T23:59:42;14.30;61.00
